createdAt,value
2023-05-23T00:00:24.525Z,10.56
2023-05-23T00:10:26.609Z,10.42
2023-05-23T00:20:29.240Z,10.24
2023-05-23T00:30:32.594Z,10.16
2023-05-23T00:40:35.790Z,10.10
2023-05-23T00:50:37.948Z,10.10
2023-05-23T01:00:43.153Z,9.91
2023-05-23T01:10:45.261Z,9.99
2023-05-23T01:20:59.995Z,9.83
2023-05-23T01:31:04.731Z,9.62
2023-05-23T01:41:12.563Z,9.61
2023-05-23T01:51:17.109Z,9.57
2023-05-23T02:01:19.348Z,9.54
2023-05-23T02:11:28.437Z,9.80
2023-05-23T02:21:31.233Z,9.68
2023-05-23T02:31:35.456Z,9.98
2023-05-23T02:41:38.644Z,10.19
2023-05-23T02:51:40.731Z,10.30
2023-05-23T03:01:48.765Z,9.93
2023-05-23T03:11:52.834Z,10.55
2023-05-23T03:21:58.974Z,11.11
2023-05-23T03:32:08.436Z,11.76
2023-05-23T03:42:10.682Z,12.54
2023-05-23T03:52:12.868Z,13.29
2023-05-23T04:02:15.020Z,13.57
2023-05-23T04:12:17.120Z,14.41
2023-05-23T04:22:22.317Z,14.59
2023-05-23T04:32:26.842Z,15.70
2023-05-23T04:42:29.935Z,16.41
2023-05-23T04:52:34.423Z,16.77
2023-05-23T05:02:43.105Z,17.38
2023-05-23T05:12:51.377Z,17.60
2023-05-23T05:22:59.400Z,18.18
2023-05-23T05:33:08.078Z,18.15
2023-05-23T05:43:11.296Z,18.91
2023-05-23T05:53:14.549Z,19.18
2023-05-23T06:03:16.635Z,20.07
2023-05-23T06:13:26.277Z,20.54
2023-05-23T06:23:28.670Z,21.21
2023-05-23T06:33:31.805Z,21.23
2023-05-23T06:43:59.123Z,21.21
2023-05-23T06:54:07.359Z,21.75
2023-05-23T07:04:09.525Z,21.95
2023-05-23T07:14:11.506Z,21.85
2023-05-23T07:24:13.553Z,22.47
2023-05-23T07:34:15.531Z,23.03
2023-05-23T07:44:43.157Z,22.78
2023-05-23T07:54:45.190Z,22.65
2023-05-23T08:04:57.269Z,22.56
2023-05-23T08:15:01.339Z,23.14
2023-05-23T08:25:03.588Z,22.91
2023-05-23T08:35:08.311Z,22.82
2023-05-23T08:45:10.890Z,23.80
2023-05-23T08:55:20.883Z,23.73
2023-05-23T09:05:23.282Z,23.49
2023-05-23T09:15:32.614Z,23.27
2023-05-23T09:25:54.843Z,23.61
2023-05-23T09:36:08.231Z,23.25
2023-05-23T09:46:29.010Z,23.61
2023-05-23T09:56:31.503Z,22.84
2023-05-23T10:06:58.011Z,23.43
2023-05-23T10:17:09.158Z,23.21
2023-05-23T10:27:13.908Z,23.99
2023-05-23T10:37:55.523Z,23.17
2023-05-23T10:49:09.082Z,23.82
2023-05-23T10:59:21.705Z,23.36
2023-05-23T11:09:25.755Z,22.94
2023-05-23T11:19:29.241Z,23.12
2023-05-23T11:30:16.632Z,23.00
2023-05-23T11:40:36.102Z,22.95
2023-05-23T11:50:55.178Z,23.44
2023-05-23T12:01:09.676Z,23.33
2023-05-23T12:11:12.516Z,23.22
2023-05-23T12:21:26.775Z,23.40
2023-05-23T12:31:29.213Z,23.29
2023-05-23T12:41:37.219Z,23.48
2023-05-23T12:51:41.501Z,23.60
2023-05-23T13:01:56.788Z,23.59
2023-05-23T13:11:59.119Z,23.60
2023-05-23T13:22:24.755Z,23.52
2023-05-23T13:32:27.205Z,23.13
2023-05-23T13:42:29.653Z,23.32
2023-05-23T13:52:36.578Z,22.71
2023-05-23T14:02:38.751Z,22.72
2023-05-23T14:12:41.165Z,22.58
2023-05-23T14:22:44.396Z,23.20
2023-05-23T14:32:46.989Z,23.32
2023-05-23T14:42:50.249Z,23.06
2023-05-23T14:52:54.788Z,23.16
2023-05-23T15:02:57.043Z,23.20
2023-05-23T15:13:00.282Z,23.38
2023-05-23T15:23:12.577Z,23.04
2023-05-23T15:33:16.144Z,23.36
2023-05-23T15:43:29.060Z,23.30
2023-05-23T15:53:37.194Z,23.06
2023-05-23T16:03:45.653Z,22.82
2023-05-23T16:13:53.918Z,22.82
2023-05-23T16:23:58.028Z,23.08
2023-05-23T16:34:06.926Z,22.80
2023-05-23T16:44:11.437Z,22.55
2023-05-23T16:54:19.005Z,22.31
2023-05-23T17:04:21.469Z,22.23
2023-05-23T17:14:30.171Z,22.11
2023-05-23T17:24:44.834Z,21.94
2023-05-23T17:34:51.478Z,21.76
2023-05-23T17:44:57.414Z,21.31
2023-05-23T17:55:05.457Z,20.39
2023-05-23T18:05:09.590Z,20.03
2023-05-23T18:15:22.709Z,19.97
2023-05-23T18:25:29.685Z,19.36
2023-05-23T18:35:41.884Z,19.59
2023-05-23T18:45:49.005Z,19.12
2023-05-23T18:56:11.621Z,18.90
2023-05-23T19:06:15.720Z,19.29
2023-05-23T19:16:26.036Z,19.08
2023-05-23T19:26:28.196Z,18.61
2023-05-23T19:36:33.433Z,18.02
2023-05-23T19:46:35.439Z,17.93
2023-05-23T19:56:46.009Z,18.23
2023-05-23T20:07:07.730Z,17.34
2023-05-23T20:27:27.195Z,17.23
2023-05-23T20:37:30.727Z,17.62
2023-05-23T20:47:45.246Z,17.20
2023-05-23T20:57:47.233Z,17.88
2023-05-23T21:07:49.271Z,17.61
2023-05-23T21:17:51.779Z,17.85
2023-05-23T21:27:53.855Z,17.44
2023-05-23T21:38:16.147Z,17.97
2023-05-23T21:48:43.166Z,18.26
2023-05-23T21:58:45.118Z,18.36
2023-05-23T22:08:47.078Z,18.35
2023-05-23T22:18:52.172Z,18.20
2023-05-23T22:28:54.610Z,18.09
2023-05-23T22:38:56.785Z,17.99
2023-05-23T22:49:22.551Z,17.90
2023-05-23T22:59:24.466Z,17.96
2023-05-23T23:09:44.654Z,17.84
2023-05-23T23:19:47.101Z,17.98
2023-05-23T23:29:49.012Z,17.92
2023-05-23T23:39:50.937Z,17.90
2023-05-23T23:49:52.922Z,17.83
2023-05-23T23:59:55.108Z,17.68
